Time;durP1;ratioP1;P1;durP2;ratioP2;P2;SDS_P1;SDS_P2;PMS_P1;PMS_P2;Temp;Humidity;BMP_temperature;BMP_pressure;BME280_temperature;BME280_humidity;BME280_pressure;Samples;Min_cycle;Max_cycle;Signal;HPM_P1;HPM_P2
2023/06/22 00:01:00;;;;;;;4.55;2.28;;;;;;;;;;5073164;27;20036;-59
2023/06/22 00:03:26;;;;;;;6.93;3.38;;;;;;;;;;5071759;28;20044;-60
2023/06/22 00:05:52;;;;;;;4.10;2.60;;;;;;;;;;5091206;27;20094;-59
2023/06/22 00:08:19;;;;;;;7.35;2.65;;;;;;;;;;5075299;28;20956;-60
2023/06/22 00:10:45;;;;;;;13.30;3.42;;;;;;;;;;5076977;28;20040;-59
2023/06/22 00:13:11;;;;;;;7.72;2.20;;;;;;;;;;5072006;28;20051;-60
2023/06/22 00:15:38;;;;;;;4.15;2.75;;;;;;;;;;5074707;28;20051;-60
2023/06/22 00:18:05;;;;;;;3.10;2.05;;;;;;;;;;5076003;28;20067;-59
2023/06/22 00:20:32;;;;;;;4.78;2.53;;;;;;;;;;5074961;28;20068;-60
2023/06/22 00:22:59;;;;;;;5.90;2.63;;;;;;;;;;5075850;28;20107;-60
2023/06/22 00:25:25;;;;;;;3.50;2.50;;;;;;;;;;5075449;28;20049;-60
2023/06/22 00:27:51;;;;;;;5.43;2.45;;;;;;;;;;5076734;28;20130;-60
2023/06/22 00:30:18;;;;;;;4.60;2.75;;;;;;;;;;5075459;28;20500;-59
2023/06/22 00:32:45;;;;;;;4.43;2.65;;;;;;;;;;5076734;28;20041;-59
2023/06/22 00:35:12;;;;;;;4.00;2.25;;;;;;;;;;5074277;28;20048;-59
2023/06/22 00:37:40;;;;;;;6.13;2.38;;;;;;;;;;5087934;27;20177;-59
2023/06/22 00:40:09;;;;;;;4.85;2.80;;;;;;;;;;5072838;27;20115;-60
2023/06/22 00:42:35;;;;;;;5.22;3.40;;;;;;;;;;5076334;28;20052;-59
2023/06/22 00:45:01;;;;;;;6.05;2.60;;;;;;;;;;5075808;28;20134;-60
2023/06/22 00:47:27;;;;;;;5.35;2.40;;;;;;;;;;5074935;28;20040;-61
2023/06/22 00:49:54;;;;;;;6.35;3.35;;;;;;;;;;5068773;28;20579;-59
2023/06/22 00:52:26;;;;;;;7.95;3.22;;;;;;;;;;5067440;28;20055;-59
2023/06/22 00:54:53;;;;;;;4.25;2.58;;;;;;;;;;5076130;28;20037;-59
2023/06/22 00:57:19;;;;;;;4.00;2.90;;;;;;;;;;5075069;28;20040;-59
2023/06/22 00:59:45;;;;;;;4.38;2.53;;;;;;;;;;5076347;28;20959;-59
2023/06/22 01:02:12;;;;;;;4.25;2.40;;;;;;;;;;5078182;28;20040;-59
2023/06/22 01:04:39;;;;;;;4.45;2.80;;;;;;;;;;5071327;28;20036;-59
2023/06/22 01:07:24;;;;;;;5.93;2.72;;;;;;;;;;5092960;27;20040;-59
2023/06/22 01:09:58;;;;;;;6.70;2.92;;;;;;;;;;5079436;28;20048;-60
2023/06/22 01:12:25;;;;;;;6.00;3.15;;;;;;;;;;5078675;28;20140;-60
2023/06/22 01:14:55;;;;;;;4.28;2.80;;;;;;;;;;5077876;28;20637;-59
2023/06/22 01:17:21;;;;;;;5.72;3.08;;;;;;;;;;5073131;28;20079;-60
2023/06/22 01:19:55;;;;;;;4.47;3.17;;;;;;;;;;5077636;28;20050;-59
2023/06/22 01:22:22;;;;;;;3.67;3.05;;;;;;;;;;5077533;28;20056;-59
2023/06/22 01:24:52;;;;;;;6.18;3.50;;;;;;;;;;5074323;28;20123;-59
2023/06/22 01:27:28;;;;;;;7.55;2.70;;;;;;;;;;5092140;27;20120;-59
2023/06/22 01:30:05;;;;;;;5.13;2.80;;;;;;;;;;5078957;28;20912;-59
2023/06/22 01:32:32;;;;;;;7.28;3.45;;;;;;;;;;5069571;28;20052;-59
2023/06/22 01:35:00;;;;;;;7.10;3.45;;;;;;;;;;5078083;28;20935;-59
2023/06/22 01:37:27;;;;;;;5.38;2.50;;;;;;;;;;5077051;28;20891;-59
2023/06/22 01:39:54;;;;;;;5.05;2.85;;;;;;;;;;5078474;28;20043;-59
2023/06/22 01:42:20;;;;;;;4.57;3.05;;;;;;;;;;5076611;28;20044;-59
2023/06/22 01:44:47;;;;;;;4.40;3.20;;;;;;;;;;5078347;28;20914;-59
2023/06/22 01:47:13;;;;;;;5.65;3.22;;;;;;;;;;5077035;28;20120;-59
2023/06/22 01:49:40;;;;;;;4.25;2.72;;;;;;;;;;5077234;28;20098;-59
2023/06/22 01:52:07;;;;;;;5.43;2.90;;;;;;;;;;5077747;28;20133;-59
2023/06/22 01:54:33;;;;;;;5.25;3.50;;;;;;;;;;5077906;28;20075;-59
2023/06/22 01:57:00;;;;;;;4.32;3.35;;;;;;;;;;5078525;28;20127;-59
2023/06/22 01:59:28;;;;;;;6.13;2.88;;;;;;;;;;5078544;28;20441;-59
2023/06/22 02:01:58;;;;;;;4.60;3.03;;;;;;;;;;5076905;28;20056;-60
2023/06/22 02:04:30;;;;;;;4.15;2.45;;;;;;;;;;5076796;28;20047;-59
2023/06/22 02:06:59;;;;;;;4.80;2.65;;;;;;;;;;5075958;28;20114;-59
2023/06/22 02:09:26;;;;;;;5.70;3.58;;;;;;;;;;5078101;28;20064;-59
2023/06/22 02:11:55;;;;;;;5.30;3.47;;;;;;;;;;5077495;28;20060;-59
2023/06/22 02:14:22;;;;;;;4.93;3.00;;;;;;;;;;5075146;28;20040;-60
2023/06/22 02:16:49;;;;;;;6.45;3.40;;;;;;;;;;5077967;28;20041;-59
2023/06/22 02:19:15;;;;;;;5.82;3.10;;;;;;;;;;5076110;28;20048;-60
2023/06/22 02:21:42;;;;;;;4.38;2.22;;;;;;;;;;5078228;28;20760;-60
2023/06/22 02:24:10;;;;;;;3.28;2.55;;;;;;;;;;5075896;28;20800;-60
2023/06/22 02:26:38;;;;;;;5.18;2.67;;;;;;;;;;5076835;28;20091;-60
2023/06/22 02:29:04;;;;;;;4.18;2.80;;;;;;;;;;5076643;28;20440;-60
2023/06/22 02:31:30;;;;;;;6.20;3.17;;;;;;;;;;5092816;27;20072;-59
2023/06/22 02:33:58;;;;;;;5.40;2.40;;;;;;;;;;5074680;28;20482;-59
2023/06/22 02:36:24;;;;;;;5.07;2.70;;;;;;;;;;5076279;28;20032;-60
2023/06/22 02:38:51;;;;;;;4.30;2.60;;;;;;;;;;5076353;28;20518;-59
2023/06/22 02:41:18;;;;;;;3.60;2.42;;;;;;;;;;5076359;28;20790;-60
2023/06/22 02:43:47;;;;;;;4.85;2.70;;;;;;;;;;5073924;28;20051;-61
2023/06/22 02:46:14;;;;;;;5.20;2.45;;;;;;;;;;5075639;28;20060;-59
2023/06/22 02:48:40;;;;;;;5.65;3.10;;;;;;;;;;5074671;28;20460;-59
2023/06/22 02:51:07;;;;;;;9.23;3.47;;;;;;;;;;5075187;28;20999;-59
2023/06/22 02:53:33;;;;;;;3.60;2.28;;;;;;;;;;5075478;28;20048;-59
2023/06/22 02:56:01;;;;;;;5.80;2.90;;;;;;;;;;5075595;28;20041;-60
2023/06/22 02:58:27;;;;;;;5.28;3.70;;;;;;;;;;5076515;28;20044;-59
2023/06/22 03:00:53;;;;;;;6.43;3.00;;;;;;;;;;5075943;28;20044;-59
2023/06/22 03:03:20;;;;;;;4.40;2.90;;;;;;;;;;5073667;28;20071;-59
2023/06/22 03:05:46;;;;;;;6.65;2.72;;;;;;;;;;5074971;28;20044;-59
2023/06/22 03:08:12;;;;;;;6.57;3.85;;;;;;;;;;5076253;28;20044;-59
2023/06/22 03:10:38;;;;;;;7.68;3.17;;;;;;;;;;5075058;28;20056;-59
2023/06/22 03:13:04;;;;;;;5.82;3.15;;;;;;;;;;5077021;28;20047;-59
2023/06/22 03:15:32;;;;;;;5.22;3.25;;;;;;;;;;5076651;28;20052;-59
2023/06/22 03:17:58;;;;;;;6.55;2.75;;;;;;;;;;5076473;28;20036;-60
2023/06/22 03:20:26;;;;;;;5.15;2.85;;;;;;;;;;5077135;28;20106;-59
2023/06/22 03:22:52;;;;;;;6.70;3.08;;;;;;;;;;5074619;27;20048;-59
2023/06/22 03:25:19;;;;;;;5.20;2.63;;;;;;;;;;5076567;28;20052;-59
2023/06/22 03:27:45;;;;;;;4.47;3.00;;;;;;;;;;5075233;28;20098;-59
2023/06/22 03:30:12;;;;;;;6.10;3.00;;;;;;;;;;5076353;28;20044;-59
2023/06/22 03:32:38;;;;;;;5.43;3.05;;;;;;;;;;5075939;27;20032;-59
2023/06/22 03:35:06;;;;;;;4.65;3.08;;;;;;;;;;5075292;28;20036;-59
2023/06/22 03:37:32;;;;;;;4.93;2.60;;;;;;;;;;5076682;28;20175;-59
2023/06/22 03:39:58;;;;;;;6.45;3.70;;;;;;;;;;5090415;27;20052;-59
2023/06/22 03:42:24;;;;;;;5.13;3.47;;;;;;;;;;5076022;28;20036;-59
2023/06/22 03:44:50;;;;;;;4.28;2.65;;;;;;;;;;5076416;28;20037;-59
2023/06/22 03:47:17;;;;;;;7.80;2.90;;;;;;;;;;5075336;28;20419;-60
2023/06/22 03:49:43;;;;;;;4.13;2.80;;;;;;;;;;5074857;28;20562;-59
2023/06/22 03:52:10;;;;;;;5.50;3.15;;;;;;;;;;5076510;28;20056;-61
2023/06/22 03:54:36;;;;;;;5.40;3.05;;;;;;;;;;5067944;28;20033;-60
2023/06/22 03:57:02;;;;;;;5.32;3.47;;;;;;;;;;5076544;28;20516;-59
2023/06/22 03:59:29;;;;;;;4.75;2.58;;;;;;;;;;5076349;28;20041;-59
2023/06/22 04:01:55;;;;;;;6.70;3.05;;;;;;;;;;5076157;28;20123;-59
2023/06/22 04:04:21;;;;;;;10.52;3.30;;;;;;;;;;5074851;28;20133;-60
2023/06/22 04:06:47;;;;;;;4.63;3.03;;;;;;;;;;5075833;28;20608;-59
2023/06/22 04:09:13;;;;;;;5.53;3.42;;;;;;;;;;5090336;27;20055;-59
2023/06/22 04:11:39;;;;;;;8.35;3.00;;;;;;;;;;5088258;27;20039;-59
2023/06/22 04:14:05;;;;;;;4.82;3.05;;;;;;;;;;5090295;27;20098;-59
2023/06/22 04:16:31;;;;;;;6.05;2.75;;;;;;;;;;5076286;28;20552;-59
2023/06/22 04:18:57;;;;;;;6.88;3.15;;;;;;;;;;5087260;27;20084;-59
2023/06/22 04:21:24;;;;;;;6.50;3.50;;;;;;;;;;5074594;28;20052;-59
2023/06/22 04:23:50;;;;;;;7.57;3.30;;;;;;;;;;5074617;28;20095;-59
2023/06/22 04:26:16;;;;;;;5.28;2.58;;;;;;;;;;5073094;28;20049;-59
2023/06/22 04:28:42;;;;;;;6.90;4.15;;;;;;;;;;5075460;28;20071;-59
2023/06/22 04:31:08;;;;;;;6.20;2.60;;;;;;;;;;5074841;28;20041;-59
2023/06/22 04:33:34;;;;;;;10.55;4.88;;;;;;;;;;5076517;28;20040;-59
2023/06/22 04:36:01;;;;;;;5.50;3.10;;;;;;;;;;5077833;28;20040;-60
2023/06/22 04:38:27;;;;;;;6.43;3.28;;;;;;;;;;5078567;28;20057;-59
2023/06/22 04:40:53;;;;;;;6.03;3.08;;;;;;;;;;5070944;28;20063;-59
2023/06/22 04:43:20;;;;;;;5.55;3.70;;;;;;;;;;5075697;28;20561;-59
2023/06/22 04:45:46;;;;;;;9.25;3.60;;;;;;;;;;5079083;28;20582;-59
2023/06/22 04:48:15;;;;;;;5.63;3.05;;;;;;;;;;5073193;27;20059;-59
2023/06/22 04:50:42;;;;;;;9.52;4.65;;;;;;;;;;5077316;28;20047;-59
2023/06/22 04:53:09;;;;;;;7.53;3.75;;;;;;;;;;5079847;28;20067;-59
2023/06/22 04:55:37;;;;;;;8.55;4.00;;;;;;;;;;5079135;27;20132;-59
2023/06/22 04:58:06;;;;;;;10.93;3.58;;;;;;;;;;5094799;27;20484;-59
2023/06/22 05:00:36;;;;;;;6.47;3.50;;;;;;;;;;5091460;27;20520;-59
2023/06/22 05:03:03;;;;;;;10.55;3.30;;;;;;;;;;5076922;28;20036;-59
2023/06/22 05:05:29;;;;;;;8.20;4.45;;;;;;;;;;5078045;28;20123;-60
2023/06/22 05:08:00;;;;;;;7.72;3.80;;;;;;;;;;5079864;28;20046;-60
2023/06/22 05:10:26;;;;;;;20.35;5.07;;;;;;;;;;5077192;28;20555;-59
2023/06/22 05:12:52;;;;;;;16.80;4.97;;;;;;;;;;5094195;27;20044;-59
2023/06/22 05:15:26;;;;;;;6.32;4.65;;;;;;;;;;5079055;28;20040;-59
2023/06/22 05:17:52;;;;;;;9.68;4.22;;;;;;;;;;5075311;28;20171;-59
2023/06/22 05:20:18;;;;;;;12.23;4.95;;;;;;;;;;5091496;27;20127;-59
2023/06/22 05:22:44;;;;;;;11.40;4.60;;;;;;;;;;5073944;28;20052;-58
2023/06/22 05:25:11;;;;;;;5.28;3.10;;;;;;;;;;5075333;28;20114;-59
2023/06/22 05:27:39;;;;;;;8.57;3.53;;;;;;;;;;5076566;28;21285;-59
2023/06/22 05:30:08;;;;;;;8.98;4.75;;;;;;;;;;5078401;28;20044;-59
2023/06/22 05:32:35;;;;;;;7.05;3.90;;;;;;;;;;5075969;28;20732;-59
2023/06/22 05:35:01;;;;;;;8.20;3.92;;;;;;;;;;5090038;27;20114;-59
2023/06/22 05:37:27;;;;;;;7.22;4.07;;;;;;;;;;5075229;28;21205;-60
2023/06/22 05:39:55;;;;;;;8.77;3.80;;;;;;;;;;5078567;28;20040;-60
2023/06/22 05:42:21;;;;;;;14.27;6.05;;;;;;;;;;5078065;28;20028;-59
2023/06/22 05:44:47;;;;;;;7.65;4.13;;;;;;;;;;5078813;28;20389;-60
2023/06/22 05:47:13;;;;;;;12.05;5.90;;;;;;;;;;5078291;28;20037;-60
2023/06/22 05:49:39;;;;;;;8.93;5.05;;;;;;;;;;5076732;28;20044;-59
2023/06/22 05:52:05;;;;;;;8.65;5.50;;;;;;;;;;5077734;28;20155;-60
2023/06/22 05:54:31;;;;;;;13.15;6.47;;;;;;;;;;5078254;28;20048;-59
2023/06/22 05:56:57;;;;;;;9.05;4.57;;;;;;;;;;5078625;28;20047;-59
2023/06/22 05:59:23;;;;;;;20.27;6.32;;;;;;;;;;5078925;28;20037;-59
2023/06/22 06:01:50;;;;;;;9.00;5.65;;;;;;;;;;5076957;28;20043;-60
2023/06/22 06:04:19;;;;;;;11.65;6.50;;;;;;;;;;5093222;27;20048;-60
2023/06/22 06:06:46;;;;;;;13.55;7.32;;;;;;;;;;5074815;27;20083;-59
2023/06/22 06:09:13;;;;;;;16.00;7.40;;;;;;;;;;5074872;28;21580;-59
2023/06/22 06:11:39;;;;;;;10.48;4.85;;;;;;;;;;5071760;28;20102;-59
2023/06/22 06:14:06;;;;;;;15.25;5.80;;;;;;;;;;5073172;28;20090;-60
2023/06/22 06:16:32;;;;;;;8.88;5.82;;;;;;;;;;5072664;28;20040;-60
2023/06/22 06:18:58;;;;;;;11.25;5.60;;;;;;;;;;5075652;27;20543;-59
2023/06/22 06:21:25;;;;;;;13.00;6.80;;;;;;;;;;5075339;28;20037;-59
2023/06/22 06:23:51;;;;;;;8.73;4.15;;;;;;;;;;5075495;28;20056;-59
2023/06/22 06:26:17;;;;;;;13.40;6.05;;;;;;;;;;5073641;28;20059;-61
2023/06/22 06:28:43;;;;;;;12.90;6.90;;;;;;;;;;5074490;28;20040;-59
2023/06/22 06:31:11;;;;;;;10.43;6.07;;;;;;;;;;5073065;28;20044;-60
2023/06/22 06:33:38;;;;;;;9.38;5.97;;;;;;;;;;5072736;28;20047;-60
2023/06/22 06:36:04;;;;;;;15.40;7.20;;;;;;;;;;5073403;28;20055;-59
2023/06/22 06:38:30;;;;;;;31.17;8.48;;;;;;;;;;5074058;27;20063;-60
2023/06/22 06:40:57;;;;;;;11.27;6.25;;;;;;;;;;5074005;28;20040;-64
2023/06/22 06:43:24;;;;;;;11.45;6.15;;;;;;;;;;5074259;28;20053;-60
2023/06/22 06:45:50;;;;;;;7.88;5.95;;;;;;;;;;5074369;28;20123;-60
2023/06/22 06:48:17;;;;;;;17.77;7.47;;;;;;;;;;5071043;28;20142;-60
2023/06/22 06:50:43;;;;;;;13.05;7.03;;;;;;;;;;5075527;28;20051;-60
2023/06/22 06:53:10;;;;;;;12.63;6.50;;;;;;;;;;5090710;27;20103;-60
2023/06/22 06:55:36;;;;;;;12.82;7.45;;;;;;;;;;5073924;28;20120;-60
2023/06/22 06:58:07;;;;;;;12.43;6.07;;;;;;;;;;5075183;27;20048;-60
2023/06/22 07:00:33;;;;;;;11.03;6.23;;;;;;;;;;5072322;28;20550;-60
2023/06/22 07:03:00;;;;;;;12.88;6.97;;;;;;;;;;5074046;27;20659;-60
2023/06/22 07:05:27;;;;;;;12.38;7.55;;;;;;;;;;5077692;28;20047;-61
2023/06/22 07:07:53;;;;;;;9.57;6.80;;;;;;;;;;5076678;28;20041;-60
2023/06/22 07:10:19;;;;;;;11.18;7.05;;;;;;;;;;5078440;28;20602;-61
2023/06/22 07:12:45;;;;;;;13.07;7.40;;;;;;;;;;5074098;28;20522;-61
2023/06/22 07:15:12;;;;;;;13.75;8.15;;;;;;;;;;5073390;28;20485;-60
2023/06/22 07:17:40;;;;;;;12.73;6.60;;;;;;;;;;5075635;28;20040;-60
2023/06/22 07:20:11;;;;;;;14.07;7.65;;;;;;;;;;5073338;28;20047;-61
2023/06/22 07:22:38;;;;;;;10.80;7.30;;;;;;;;;;5072657;28;20049;-62
2023/06/22 07:25:13;;;;;;;12.25;7.25;;;;;;;;;;5091496;27;20080;-60
2023/06/22 07:27:43;;;;;;;12.35;6.18;;;;;;;;;;5074712;28;20846;-59
2023/06/22 07:30:09;;;;;;;14.90;6.90;;;;;;;;;;5073542;28;20033;-60
2023/06/22 07:32:36;;;;;;;9.85;6.95;;;;;;;;;;5075010;28;20056;-60
2023/06/22 07:35:02;;;;;;;9.77;5.93;;;;;;;;;;5073000;28;20515;-61
2023/06/22 07:37:29;;;;;;;12.95;7.05;;;;;;;;;;5072827;28;20025;-61
2023/06/22 07:39:58;;;;;;;18.33;9.05;;;;;;;;;;5074030;28;20045;-61
2023/06/22 07:42:30;;;;;;;12.27;7.50;;;;;;;;;;5075370;28;20576;-60
2023/06/22 07:44:56;;;;;;;10.38;6.20;;;;;;;;;;5076049;28;20076;-61
2023/06/22 07:47:25;;;;;;;14.60;8.93;;;;;;;;;;5092115;27;20048;-61
2023/06/22 07:49:54;;;;;;;20.60;9.77;;;;;;;;;;5076194;27;20139;-61
2023/06/22 07:52:21;;;;;;;13.55;7.65;;;;;;;;;;5075755;28;20029;-61
2023/06/22 07:54:47;;;;;;;18.58;12.15;;;;;;;;;;5076115;27;20995;-61
2023/06/22 07:57:13;;;;;;;20.10;11.45;;;;;;;;;;5076461;28;20054;-61
2023/06/22 07:59:39;;;;;;;16.58;10.88;;;;;;;;;;5075641;28;20643;-61
2023/06/22 08:02:05;;;;;;;17.20;10.75;;;;;;;;;;5073389;28;20506;-61
2023/06/22 08:04:33;;;;;;;15.85;9.93;;;;;;;;;;5089150;27;20049;-61
2023/06/22 08:07:00;;;;;;;23.00;11.20;;;;;;;;;;5075079;28;20041;-61
2023/06/22 08:09:26;;;;;;;18.70;9.02;;;;;;;;;;5075116;28;20068;-62
2023/06/22 08:11:52;;;;;;;17.10;11.65;;;;;;;;;;5073991;28;20637;-61
2023/06/22 08:14:18;;;;;;;15.80;9.65;;;;;;;;;;5090679;27;20787;-61
2023/06/22 08:16:44;;;;;;;17.67;9.95;;;;;;;;;;5072825;28;20045;-61
2023/06/22 08:19:10;;;;;;;14.20;8.60;;;;;;;;;;5074918;28;20052;-62
2023/06/22 08:21:37;;;;;;;13.52;6.95;;;;;;;;;;5087454;27;20880;-61
2023/06/22 08:24:03;;;;;;;16.45;9.57;;;;;;;;;;5075184;28;20075;-61
2023/06/22 08:26:29;;;;;;;13.25;8.45;;;;;;;;;;5072103;28;20037;-61
2023/06/22 08:28:55;;;;;;;18.27;9.23;;;;;;;;;;5073265;28;20052;-61
2023/06/22 08:31:21;;;;;;;13.00;8.88;;;;;;;;;;5069791;28;20044;-60
2023/06/22 08:33:47;;;;;;;15.38;10.32;;;;;;;;;;5070544;28;20423;-61
2023/06/22 08:36:13;;;;;;;16.85;9.90;;;;;;;;;;5070765;28;20444;-60
2023/06/22 08:38:39;;;;;;;16.40;10.43;;;;;;;;;;5071283;28;20128;-61
2023/06/22 08:41:05;;;;;;;21.75;10.80;;;;;;;;;;5073975;28;20041;-61
2023/06/22 08:43:32;;;;;;;19.15;12.07;;;;;;;;;;5072381;28;20056;-61
2023/06/22 08:45:58;;;;;;;18.70;12.57;;;;;;;;;;5069614;28;20036;-61
2023/06/22 08:48:24;;;;;;;16.60;10.00;;;;;;;;;;5071513;28;20044;-60
2023/06/22 08:50:50;;;;;;;19.33;10.30;;;;;;;;;;5072879;28;20033;-60
2023/06/22 08:53:16;;;;;;;11.85;7.40;;;;;;;;;;5073138;28;20876;-61
2023/06/22 08:55:42;;;;;;;14.10;9.10;;;;;;;;;;5073729;28;20801;-62
2023/06/22 08:58:08;;;;;;;19.95;11.00;;;;;;;;;;5072421;27;20192;-62
2023/06/22 09:00:35;;;;;;;19.20;11.82;;;;;;;;;;5070747;28;20694;-61
2023/06/22 09:03:01;;;;;;;17.58;10.23;;;;;;;;;;5087718;27;20517;-61
2023/06/22 09:05:27;;;;;;;20.30;11.05;;;;;;;;;;5068797;28;20522;-60
2023/06/22 09:07:56;;;;;;;14.30;9.23;;;;;;;;;;5071919;28;20047;-63
2023/06/22 09:10:22;;;;;;;21.58;12.30;;;;;;;;;;5072414;28;20041;-61
2023/06/22 09:12:48;;;;;;;21.45;13.07;;;;;;;;;;5074623;28;20131;-61
2023/06/22 09:15:14;;;;;;;21.45;14.82;;;;;;;;;;5072189;28;21410;-61
2023/06/22 09:17:41;;;;;;;16.33;11.93;;;;;;;;;;5090396;27;20560;-61
2023/06/22 09:20:10;;;;;;;14.95;10.20;;;;;;;;;;5075973;28;20472;-61
2023/06/22 09:22:36;;;;;;;17.80;10.70;;;;;;;;;;5074168;28;20045;-61
2023/06/22 09:25:03;;;;;;;19.70;12.55;;;;;;;;;;5074465;28;20151;-61
2023/06/22 09:27:29;;;;;;;17.58;13.00;;;;;;;;;;5070582;28;21290;-62
2023/06/22 09:29:55;;;;;;;20.02;13.13;;;;;;;;;;5071223;28;20049;-62
2023/06/22 09:32:21;;;;;;;15.68;9.73;;;;;;;;;;5074400;28;20041;-62
2023/06/22 09:34:48;;;;;;;17.67;12.15;;;;;;;;;;5075706;28;20049;-61
2023/06/22 09:37:14;;;;;;;16.70;11.35;;;;;;;;;;5074156;28;20044;-62
2023/06/22 09:39:40;;;;;;;19.20;13.95;;;;;;;;;;5092239;27;20151;-61
2023/06/22 09:42:06;;;;;;;23.83;14.57;;;;;;;;;;5075579;28;20540;-61
2023/06/22 09:44:32;;;;;;;20.15;13.50;;;;;;;;;;5073759;28;21085;-62
2023/06/22 09:46:58;;;;;;;24.73;15.02;;;;;;;;;;5073038;28;20538;-61
2023/06/22 09:49:24;;;;;;;24.35;14.80;;;;;;;;;;5074295;28;20126;-61
2023/06/22 09:51:50;;;;;;;22.52;14.30;;;;;;;;;;5074558;28;20536;-61
2023/06/22 09:54:17;;;;;;;19.40;13.30;;;;;;;;;;5074122;28;20060;-61
2023/06/22 09:56:43;;;;;;;25.08;14.75;;;;;;;;;;5091921;27;20041;-61
2023/06/22 09:59:09;;;;;;;24.27;15.40;;;;;;;;;;5075349;28;20565;-61
2023/06/22 10:01:35;;;;;;;24.05;16.30;;;;;;;;;;5075399;28;20044;-61
2023/06/22 10:04:02;;;;;;;21.70;14.43;;;;;;;;;;5074847;28;20132;-61
2023/06/22 10:06:28;;;;;;;15.63;11.68;;;;;;;;;;5075171;28;20036;-61
2023/06/22 10:08:54;;;;;;;19.45;13.27;;;;;;;;;;5070748;28;20044;-61
2023/06/22 10:11:26;;;;;;;28.50;14.95;;;;;;;;;;5073087;28;20056;-62
2023/06/22 10:13:52;;;;;;;22.75;12.27;;;;;;;;;;5075390;28;20075;-61
2023/06/22 10:16:18;;;;;;;20.60;11.77;;;;;;;;;;5075604;28;20033;-61
2023/06/22 10:18:44;;;;;;;23.70;15.30;;;;;;;;;;5079133;28;20044;-60
2023/06/22 10:21:11;;;;;;;30.70;14.40;;;;;;;;;;5078006;28;20052;-61
2023/06/22 10:23:37;;;;;;;16.48;11.10;;;;;;;;;;5094419;27;20057;-61
2023/06/22 10:26:03;;;;;;;16.88;10.23;;;;;;;;;;5078693;28;20524;-61
2023/06/22 10:28:29;;;;;;;22.20;12.82;;;;;;;;;;5078821;28;20041;-60
2023/06/22 10:30:55;;;;;;;22.75;14.02;;;;;;;;;;5078494;28;20041;-60
2023/06/22 10:33:21;;;;;;;22.25;12.50;;;;;;;;;;5078648;28;20051;-61
2023/06/22 10:35:47;;;;;;;15.18;9.43;;;;;;;;;;5078608;28;20603;-61
2023/06/22 10:38:13;;;;;;;14.60;9.52;;;;;;;;;;5078075;28;20048;-61
2023/06/22 10:40:39;;;;;;;19.70;11.60;;;;;;;;;;5078098;28;20435;-60
2023/06/22 10:43:05;;;;;;;17.02;11.07;;;;;;;;;;5077855;28;20554;-60
2023/06/22 10:45:31;;;;;;;13.90;9.32;;;;;;;;;;5078339;28;20131;-60
2023/06/22 10:47:57;;;;;;;16.33;11.10;;;;;;;;;;5078536;28;20730;-60
2023/06/22 10:50:24;;;;;;;15.82;8.93;;;;;;;;;;5078829;28;20068;-60
2023/06/22 10:52:50;;;;;;;16.10;10.80;;;;;;;;;;5077658;28;20551;-61
2023/06/22 10:55:16;;;;;;;16.90;10.90;;;;;;;;;;5078201;28;20430;-61
2023/06/22 10:57:44;;;;;;;16.95;12.55;;;;;;;;;;5069468;28;20040;-61
2023/06/22 11:00:11;;;;;;;14.30;9.77;;;;;;;;;;5078350;28;20053;-61
2023/06/22 11:02:37;;;;;;;15.65;9.75;;;;;;;;;;5077040;28;20041;-61
2023/06/22 11:05:03;;;;;;;14.35;11.15;;;;;;;;;;5078389;28;20056;-60
2023/06/22 11:07:29;;;;;;;14.95;10.30;;;;;;;;;;5092505;27;20078;-61
2023/06/22 11:09:56;;;;;;;16.40;10.00;;;;;;;;;;5077793;28;20056;-61
2023/06/22 11:12:22;;;;;;;14.85;10.32;;;;;;;;;;5077674;28;20040;-61
2023/06/22 11:14:50;;;;;;;18.80;9.15;;;;;;;;;;5077697;28;20041;-60
2023/06/22 11:17:16;;;;;;;12.40;10.07;;;;;;;;;;5077903;28;20065;-60
2023/06/22 11:19:42;;;;;;;13.25;7.65;;;;;;;;;;5077601;28;20681;-60
2023/06/22 11:22:08;;;;;;;16.80;8.35;;;;;;;;;;5078748;28;20487;-60
2023/06/22 11:24:34;;;;;;;16.13;8.95;;;;;;;;;;5077620;28;20318;-60
2023/06/22 11:27:00;;;;;;;13.13;8.15;;;;;;;;;;5078223;28;20047;-60
2023/06/22 11:29:26;;;;;;;11.32;6.93;;;;;;;;;;5076605;28;20128;-60
2023/06/22 11:31:52;;;;;;;10.82;6.72;;;;;;;;;;5069045;28;20044;-61
2023/06/22 11:34:19;;;;;;;11.90;8.10;;;;;;;;;;5077852;28;20049;-60
2023/06/22 11:36:45;;;;;;;12.38;7.03;;;;;;;;;;5077899;28;20408;-60
2023/06/22 11:39:13;;;;;;;12.30;7.68;;;;;;;;;;5076821;28;20049;-60
2023/06/22 11:41:39;;;;;;;14.43;8.05;;;;;;;;;;5077861;28;20147;-60
2023/06/22 11:44:06;;;;;;;11.35;6.72;;;;;;;;;;5077360;28;20040;-61
2023/06/22 11:46:33;;;;;;;12.70;6.70;;;;;;;;;;5077647;28;20040;-60
2023/06/22 11:48:59;;;;;;;9.80;7.00;;;;;;;;;;5077415;28;20052;-60
2023/06/22 11:51:25;;;;;;;14.85;7.07;;;;;;;;;;5076940;28;20594;-60
2023/06/22 11:53:51;;;;;;;9.60;7.10;;;;;;;;;;5076825;28;20143;-60
2023/06/22 11:56:17;;;;;;;14.57;7.20;;;;;;;;;;5075940;28;20305;-60
2023/06/22 11:58:43;;;;;;;9.30;6.93;;;;;;;;;;5076359;28;20053;-61
2023/06/22 12:01:09;;;;;;;10.85;6.55;;;;;;;;;;5076682;28;20044;-60
2023/06/22 12:03:35;;;;;;;10.45;6.53;;;;;;;;;;5076311;28;20067;-60
2023/06/22 12:06:01;;;;;;;11.13;7.07;;;;;;;;;;5076270;27;20047;-60
2023/06/22 12:08:27;;;;;;;12.23;6.53;;;;;;;;;;5077483;28;20049;-59
2023/06/22 12:10:54;;;;;;;8.57;6.07;;;;;;;;;;5076623;28;20044;-61
2023/06/22 12:13:20;;;;;;;12.68;5.97;;;;;;;;;;5091949;27;20040;-60
2023/06/22 12:15:46;;;;;;;8.25;5.97;;;;;;;;;;5077182;28;20082;-60
2023/06/22 12:18:14;;;;;;;8.95;6.28;;;;;;;;;;5076906;28;20556;-60
2023/06/22 12:20:40;;;;;;;8.98;6.53;;;;;;;;;;5076494;28;20099;-60
2023/06/22 12:23:07;;;;;;;7.40;5.25;;;;;;;;;;5076684;28;20083;-59
2023/06/22 12:25:33;;;;;;;7.95;4.72;;;;;;;;;;5077692;28;20048;-60
2023/06/22 12:27:59;;;;;;;10.98;5.82;;;;;;;;;;5076446;28;20047;-61
2023/06/22 12:30:25;;;;;;;8.15;5.80;;;;;;;;;;5076845;28;20106;-60
2023/06/22 12:32:51;;;;;;;9.35;6.00;;;;;;;;;;5076397;28;20036;-60
2023/06/22 12:35:17;;;;;;;7.10;5.13;;;;;;;;;;5073393;28;20052;-60
2023/06/22 12:37:43;;;;;;;8.60;4.82;;;;;;;;;;5075177;28;20041;-60
2023/06/22 12:40:10;;;;;;;5.88;3.17;;;;;;;;;;5073344;28;20523;-60
2023/06/22 12:42:36;;;;;;;5.38;3.53;;;;;;;;;;5090750;27;20521;-60
2023/06/22 12:45:02;;;;;;;8.30;3.10;;;;;;;;;;5075749;28;20051;-60
2023/06/22 12:47:28;;;;;;;4.60;3.33;;;;;;;;;;5075147;28;20100;-59
2023/06/22 12:49:54;;;;;;;4.97;3.55;;;;;;;;;;5076400;28;20108;-60
2023/06/22 12:52:20;;;;;;;8.18;2.85;;;;;;;;;;5076841;28;20052;-60
2023/06/22 12:54:46;;;;;;;6.07;2.75;;;;;;;;;;5078597;28;20858;-60
2023/06/22 12:57:12;;;;;;;4.00;2.80;;;;;;;;;;5080107;28;20547;-60
2023/06/22 12:59:39;;;;;;;6.82;3.08;;;;;;;;;;5080358;28;20534;-60
2023/06/22 13:02:05;;;;;;;6.03;3.53;;;;;;;;;;5080899;28;20032;-64
2023/06/22 13:04:31;;;;;;;4.82;2.53;;;;;;;;;;5081359;28;20048;-60
2023/06/22 13:06:57;;;;;;;7.68;3.88;;;;;;;;;;5080499;28;20531;-60
2023/06/22 13:09:23;;;;;;;7.40;3.33;;;;;;;;;;5096046;27;20147;-60
2023/06/22 13:11:49;;;;;;;6.78;3.80;;;;;;;;;;5095553;27;20071;-60
2023/06/22 13:14:16;;;;;;;4.63;2.80;;;;;;;;;;5080473;28;20534;-59
2023/06/22 13:16:42;;;;;;;8.93;3.40;;;;;;;;;;5079352;28;20049;-60
2023/06/22 13:19:08;;;;;;;7.15;3.45;;;;;;;;;;5079997;28;20097;-60
2023/06/22 13:21:34;;;;;;;6.43;3.45;;;;;;;;;;5079574;28;20044;-60
2023/06/22 13:24:01;;;;;;;5.05;3.22;;;;;;;;;;5079302;28;20099;-60
2023/06/22 13:26:28;;;;;;;7.47;3.95;;;;;;;;;;5078966;27;20054;-60
2023/06/22 13:28:54;;;;;;;6.15;3.83;;;;;;;;;;5079519;28;20071;-59
2023/06/22 13:31:21;;;;;;;5.82;3.08;;;;;;;;;;5079687;28;20052;-60
2023/06/22 13:33:48;;;;;;;6.38;2.70;;;;;;;;;;5079732;28;20040;-61
2023/06/22 13:36:15;;;;;;;4.93;2.88;;;;;;;;;;5079274;28;20048;-60
2023/06/22 13:38:41;;;;;;;6.95;3.33;;;;;;;;;;5079880;28;20049;-60
2023/06/22 13:41:07;;;;;;;6.30;2.58;;;;;;;;;;5079548;28;20045;-60
2023/06/22 13:43:33;;;;;;;6.03;2.75;;;;;;;;;;5078726;28;20048;-59
2023/06/22 13:45:59;;;;;;;5.97;3.22;;;;;;;;;;5079239;28;20089;-60
2023/06/22 13:48:25;;;;;;;7.32;3.50;;;;;;;;;;5079616;28;20040;-61
2023/06/22 13:50:52;;;;;;;3.65;2.85;;;;;;;;;;5076653;27;20086;-60
2023/06/22 13:53:18;;;;;;;4.78;3.05;;;;;;;;;;5071604;28;20079;-60
2023/06/22 13:55:44;;;;;;;5.32;3.00;;;;;;;;;;5077824;28;21283;-61
2023/06/22 13:58:10;;;;;;;5.30;2.95;;;;;;;;;;5080332;28;20060;-60
2023/06/22 14:00:36;;;;;;;8.20;2.92;;;;;;;;;;5077284;28;20119;-60
2023/06/22 14:03:02;;;;;;;4.15;2.63;;;;;;;;;;5080252;28;20123;-60
2023/06/22 14:05:28;;;;;;;8.60;3.23;;;;;;;;;;5077649;28;20567;-60
2023/06/22 14:07:54;;;;;;;6.95;3.00;;;;;;;;;;5079674;28;20044;-60
2023/06/22 14:10:20;;;;;;;5.07;2.40;;;;;;;;;;5078528;28;20120;-60
2023/06/22 14:12:46;;;;;;;4.88;2.45;;;;;;;;;;5079640;28;20045;-61
2023/06/22 14:15:12;;;;;;;3.85;2.40;;;;;;;;;;5094024;27;20527;-61
2023/06/22 14:17:38;;;;;;;8.50;2.08;;;;;;;;;;5078719;28;20045;-61
2023/06/22 14:20:05;;;;;;;4.30;1.88;;;;;;;;;;5077922;28;20048;-61
2023/06/22 14:22:35;;;;;;;2.97;1.90;;;;;;;;;;5078452;28;20037;-61
2023/06/22 14:25:01;;;;;;;4.95;2.28;;;;;;;;;;5078333;28;20565;-61
2023/06/22 14:27:27;;;;;;;6.93;2.30;;;;;;;;;;5078434;28;20041;-61
2023/06/22 14:29:53;;;;;;;4.50;2.10;;;;;;;;;;5079407;28;20048;-61
2023/06/22 14:32:19;;;;;;;5.38;2.20;;;;;;;;;;5079200;28;20094;-61